createdAt,value
2022-08-19T00:01:44.215Z,99255.91
2022-08-19T00:04:12.507Z,99259.63
2022-08-19T00:06:39.930Z,99261.31
2022-08-19T00:09:07.249Z,99265.84
2022-08-19T00:11:34.119Z,99264.59
2022-08-19T00:14:00.497Z,99264.78
2022-08-19T00:16:27.105Z,99267.28
2022-08-19T00:18:54.693Z,99266.66
2022-08-19T00:21:21.149Z,99267.88
2022-08-19T00:23:47.529Z,99269.97
2022-08-19T00:26:14.483Z,99267.84
2022-08-19T00:28:40.812Z,99278.19
2022-08-19T00:31:07.788Z,99279.44
2022-08-19T00:33:34.310Z,99278.81
2022-08-19T00:36:01.395Z,99284.78
2022-08-19T00:38:37.480Z,99279.59
2022-08-19T00:41:04.514Z,99271.97
2022-08-19T00:43:30.912Z,99269.88
2022-08-19T00:45:57.252Z,99267.63
2022-08-19T00:48:24.376Z,99274.22
2022-08-19T00:50:52.195Z,99269.91
2022-08-19T00:53:21.082Z,99274.00
2022-08-19T00:55:48.407Z,99268.63
2022-08-19T00:58:19.808Z,99261.59
2022-08-19T01:00:47.104Z,99262.25
2022-08-19T01:03:15.850Z,99266.97
2022-08-19T01:05:46.564Z,99268.00
2022-08-19T01:08:13.024Z,99264.69
2022-08-19T01:10:59.636Z,99264.50
2022-08-19T01:13:27.492Z,99262.63
2022-08-19T01:15:56.677Z,99254.56
2022-08-19T01:18:23.039Z,99250.63
2022-08-19T01:20:52.817Z,99243.56
2022-08-19T01:23:19.237Z,99236.53
2022-08-19T01:25:47.801Z,99238.19
2022-08-19T01:28:39.881Z,99238.03
2022-08-19T01:31:08.152Z,99231.81
2022-08-19T01:33:34.785Z,99234.47
2022-08-19T01:36:09.522Z,99226.84
2022-08-19T01:38:37.347Z,99227.44
2022-08-19T01:41:11.906Z,99221.03
2022-08-19T01:43:38.788Z,99221.88
2022-08-19T01:46:25.536Z,99212.81
2022-08-19T01:48:51.934Z,99221.03
2022-08-19T01:51:18.722Z,99213.44
2022-08-19T01:53:47.743Z,99205.34
2022-08-19T01:56:14.250Z,99202.22
2022-08-19T01:58:43.410Z,99204.75
2022-08-19T02:01:09.809Z,99209.66
2022-08-19T02:03:36.163Z,99206.59
2022-08-19T02:06:06.275Z,99219.22
2022-08-19T02:08:33.914Z,99229.53
2022-08-19T02:11:00.266Z,99224.56
2022-08-19T02:13:28.339Z,99222.25
2022-08-19T02:15:54.713Z,99224.56
2022-08-19T02:18:21.341Z,99228.28
2022-08-19T02:20:54.315Z,99235.94
2022-08-19T02:23:20.681Z,99237.16
2022-08-19T02:25:47.877Z,99236.72
2022-08-19T02:28:18.317Z,99229.69
2022-08-19T02:30:45.182Z,99221.63
2022-08-19T02:33:11.533Z,99223.06
2022-08-19T02:35:37.861Z,99218.56
2022-08-19T02:38:22.971Z,99235.91
2022-08-19T02:40:52.482Z,99234.59
2022-08-19T02:43:21.070Z,99245.75
2022-08-19T02:45:49.204Z,99241.22
2022-08-19T02:48:21.586Z,99241.41
2022-08-19T02:50:53.606Z,99235.22
2022-08-19T02:53:20.156Z,99245.94
2022-08-19T02:55:47.209Z,99241.19
2022-08-19T02:58:14.477Z,99241.19
2022-08-19T03:00:45.121Z,99245.09
2022-08-19T03:03:11.699Z,99238.66
2022-08-19T03:05:48.290Z,99252.47
2022-08-19T03:08:23.412Z,99253.06
2022-08-19T03:10:49.743Z,99262.13
2022-08-19T03:13:18.089Z,99270.34
2022-08-19T03:15:45.648Z,99268.50
2022-08-19T03:18:12.104Z,99273.19
2022-08-19T03:20:46.470Z,99272.59
2022-08-19T03:23:13.637Z,99269.91
2022-08-19T03:25:43.970Z,99269.47
2022-08-19T03:28:14.429Z,99266.16
2022-08-19T03:30:44.584Z,99261.00
2022-08-19T03:33:15.852Z,99270.72
2022-08-19T03:35:45.985Z,99268.03
2022-08-19T03:38:12.361Z,99272.34
2022-08-19T03:40:38.693Z,99263.09
2022-08-19T03:43:05.144Z,99258.28
2022-08-19T03:45:31.472Z,99262.44
2022-08-19T03:47:57.855Z,99265.94
2022-08-19T03:50:25.265Z,99252.47
2022-08-19T03:52:52.032Z,99253.06
2022-08-19T03:55:18.895Z,99257.47
2022-08-19T03:57:46.682Z,99256.59
2022-08-19T04:00:14.117Z,99250.38
2022-08-19T04:02:41.443Z,99256.50
2022-08-19T04:05:09.015Z,99259.84
2022-08-19T04:07:35.406Z,99268.09
2022-08-19T04:10:01.825Z,99277.50
2022-08-19T04:12:29.029Z,99273.41
2022-08-19T04:14:55.375Z,99279.16
2022-08-19T04:17:22.222Z,99282.00
2022-08-19T04:19:48.560Z,99282.13
2022-08-19T04:22:14.889Z,99282.34
2022-08-19T04:24:41.299Z,99279.44
2022-08-19T04:27:07.633Z,99284.00
2022-08-19T04:29:34.230Z,99291.50
2022-08-19T04:32:09.214Z,99287.34
2022-08-19T04:34:36.139Z,99285.59
2022-08-19T04:37:22.437Z,99286.84
2022-08-19T04:40:07.634Z,99285.53
2022-08-19T04:42:40.114Z,99287.84
2022-08-19T04:45:09.224Z,99282.22
2022-08-19T04:47:49.148Z,99280.94
2022-08-19T04:50:23.528Z,99276.22
2022-08-19T04:52:51.462Z,99275.19
2022-08-19T04:55:18.877Z,99279.28
2022-08-19T04:57:45.200Z,99273.84
2022-08-19T05:00:12.146Z,99287.72
2022-08-19T05:02:38.993Z,99287.72
2022-08-19T05:05:07.398Z,99285.41
2022-08-19T05:07:33.990Z,99290.91
2022-08-19T05:10:00.397Z,99284.44
2022-08-19T05:12:29.126Z,99290.66
2022-08-19T05:14:57.668Z,99305.59
2022-08-19T05:17:27.605Z,99299.78
2022-08-19T05:20:13.951Z,99299.56
2022-08-19T05:22:40.833Z,99309.94
2022-08-19T05:25:13.042Z,99313.84
2022-08-19T05:27:40.172Z,99303.84
2022-08-19T05:30:06.779Z,99316.44
2022-08-19T05:32:33.100Z,99309.06
2022-08-19T05:34:59.526Z,99314.66
2022-08-19T05:37:28.499Z,99312.63
2022-08-19T05:39:55.670Z,99323.84
2022-08-19T05:42:23.676Z,99311.53
2022-08-19T05:44:50.553Z,99318.13
2022-08-19T05:47:17.361Z,99304.19
2022-08-19T05:49:43.833Z,99303.34
2022-08-19T05:52:11.705Z,99304.06
2022-08-19T05:54:41.163Z,99306.16
2022-08-19T05:57:07.521Z,99307.38
2022-08-19T05:59:36.415Z,99300.63
2022-08-19T06:02:07.422Z,99306.22
2022-08-19T06:04:34.121Z,99312.66
2022-08-19T06:07:00.541Z,99315.75
2022-08-19T06:09:39.893Z,99308.75
2022-08-19T06:12:06.480Z,99315.84
2022-08-19T06:14:35.427Z,99318.34
2022-08-19T06:17:07.555Z,99324.47
2022-08-19T06:19:34.074Z,99327.97
2022-08-19T06:22:00.821Z,99333.53
2022-08-19T06:24:29.465Z,99340.00
2022-08-19T06:27:00.744Z,99334.44
2022-08-19T06:29:28.758Z,99336.09
2022-08-19T06:31:57.065Z,99341.53
2022-08-19T06:34:24.018Z,99339.13
2022-08-19T06:36:52.023Z,99347.16
2022-08-19T06:39:23.410Z,99353.22
2022-08-19T06:41:53.380Z,99356.59
2022-08-19T06:44:23.277Z,99368.63
2022-08-19T06:46:54.788Z,99359.81
2022-08-19T06:49:21.706Z,99361.31
2022-08-19T06:51:49.217Z,99356.41
2022-08-19T06:54:17.046Z,99358.13
2022-08-19T06:56:46.534Z,99366.50
2022-08-19T06:59:14.691Z,99373.19
2022-08-19T07:01:47.911Z,99372.44
2022-08-19T07:04:16.522Z,99375.38
2022-08-19T07:06:44.874Z,99377.31
2022-08-19T07:09:13.672Z,99371.38
2022-08-19T07:11:44.318Z,99380.91
2022-08-19T07:14:18.936Z,99382.22
2022-08-19T07:16:46.845Z,99385.97
2022-08-19T07:19:16.240Z,99382.44
2022-08-19T07:21:45.982Z,99391.13
2022-08-19T07:24:13.163Z,99395.69
2022-08-19T07:26:40.845Z,99392.38
2022-08-19T07:29:09.169Z,99390.91
2022-08-19T07:31:37.493Z,99389.28
2022-08-19T07:34:07.782Z,99392.84
2022-08-19T07:36:35.197Z,99393.69
2022-08-19T07:39:04.297Z,99403.84
2022-08-19T07:41:31.548Z,99397.22
2022-08-19T07:43:58.824Z,99403.66
2022-08-19T07:46:25.179Z,99399.31
2022-08-19T07:48:52.525Z,99402.25
2022-08-19T07:51:35.965Z,99390.66
2022-08-19T07:54:04.173Z,99383.00
2022-08-19T07:56:30.504Z,99390.69
2022-08-19T08:01:29.008Z,99383.22
2022-08-19T08:04:15.798Z,99384.25
2022-08-19T08:07:00.652Z,99386.97
2022-08-19T08:09:29.451Z,99385.75
2022-08-19T08:12:04.984Z,99392.78
2022-08-19T08:14:38.422Z,99395.25
2022-08-19T08:17:11.789Z,99385.72
2022-08-19T08:19:38.782Z,99388.22
2022-08-19T08:22:07.100Z,99384.47
2022-08-19T08:24:34.503Z,99382.41
2022-08-19T08:27:01.723Z,99391.13
2022-08-19T08:29:34.818Z,99396.69
2022-08-19T08:32:01.583Z,99390.47
2022-08-19T08:34:27.922Z,99391.09
2022-08-19T08:36:54.306Z,99395.84
2022-08-19T08:39:21.506Z,99396.25
2022-08-19T08:42:10.295Z,99401.63
2022-08-19T08:47:26.248Z,99405.97
2022-08-19T08:49:55.774Z,99404.31
2022-08-19T08:52:43.532Z,99398.91
2022-08-19T08:55:14.628Z,99390.59
2022-08-19T08:57:51.630Z,99393.88
2022-08-19T09:00:20.769Z,99405.88
2022-08-19T09:02:50.483Z,99403.38
2022-08-19T09:05:19.429Z,99400.66
2022-08-19T09:07:48.963Z,99403.91
2022-08-19T09:10:27.032Z,99399.31
2022-08-19T09:13:15.518Z,99396.19
2022-08-19T09:15:48.778Z,99404.25
2022-08-19T09:18:19.197Z,99407.78
2022-08-19T09:20:47.546Z,99395.31
2022-08-19T09:23:13.930Z,99398.16
2022-08-19T09:25:41.099Z,99385.25
2022-08-19T09:28:20.326Z,99389.97
2022-08-19T09:30:49.342Z,99391.78
2022-08-19T09:33:17.031Z,99398.16
2022-08-19T09:35:53.205Z,99385.06
2022-08-19T09:38:20.743Z,99385.41
2022-08-19T09:40:47.393Z,99386.06
2022-08-19T09:43:13.737Z,99382.56
2022-08-19T09:45:40.566Z,99382.13
2022-08-19T09:48:07.140Z,99388.28
2022-08-19T09:50:35.042Z,99376.44
2022-08-19T09:53:01.473Z,99381.78
2022-08-19T09:55:31.166Z,99374.91
2022-08-19T09:57:58.606Z,99374.00
2022-08-19T10:00:25.144Z,99379.59
2022-08-19T10:02:51.470Z,99369.97
2022-08-19T10:05:38.445Z,99371.38
2022-08-19T10:08:13.329Z,99371.91
2022-08-19T10:10:43.177Z,99365.50
2022-08-19T10:13:09.643Z,99370.66
2022-08-19T10:15:47.225Z,99364.19
2022-08-19T10:18:15.033Z,99372.97
2022-08-19T10:20:42.717Z,99374.00
2022-08-19T10:23:09.991Z,99356.94
2022-08-19T10:25:36.896Z,99357.44
2022-08-19T10:28:06.938Z,99359.78
2022-08-19T10:30:37.605Z,99365.03
2022-08-19T10:33:08.669Z,99352.41
2022-08-19T10:35:42.510Z,99363.47
2022-08-19T10:38:09.292Z,99354.19
2022-08-19T10:40:36.615Z,99350.28
2022-08-19T10:43:03.013Z,99340.59
2022-08-19T10:45:29.346Z,99349.03
2022-08-19T10:47:56.142Z,99341.53
2022-08-19T10:50:42.037Z,99337.22
2022-08-19T10:53:11.764Z,99337.22
2022-08-19T10:55:57.253Z,99337.09
2022-08-19T10:58:26.210Z,99331.56
2022-08-19T11:00:57.100Z,99334.25
2022-08-19T11:03:24.283Z,99334.22
2022-08-19T11:06:01.273Z,99332.19
2022-08-19T11:08:27.726Z,99329.19
2022-08-19T11:11:01.557Z,99322.13
2022-08-19T11:13:29.189Z,99321.41
2022-08-19T11:16:07.327Z,99324.72
2022-08-19T11:18:38.348Z,99330.88
2022-08-19T11:21:13.353Z,99325.22
2022-08-19T11:23:39.999Z,99329.47
2022-08-19T11:26:06.383Z,99324.25
2022-08-19T11:28:32.759Z,99316.44
2022-08-19T11:30:59.203Z,99315.34
2022-08-19T11:33:27.190Z,99324.63
2022-08-19T11:35:54.279Z,99307.94
2022-08-19T11:38:20.686Z,99306.97
2022-08-19T11:40:54.322Z,99315.44
2022-08-19T11:43:20.963Z,99318.91
2022-08-19T11:45:49.534Z,99322.88
2022-08-19T11:48:15.901Z,99316.47
2022-08-19T11:50:43.069Z,99306.00
2022-08-19T11:53:10.818Z,99318.78
2022-08-19T11:55:39.897Z,99310.59
2022-08-19T11:58:15.009Z,99301.28
2022-08-19T12:00:46.085Z,99301.44
2022-08-19T12:04:43.643Z,99299.88
2022-08-19T12:07:10.031Z,99305.41
2022-08-19T12:09:36.761Z,99299.66
2022-08-19T12:12:09.252Z,99296.22
2022-08-19T12:14:36.334Z,99285.75
2022-08-19T12:17:05.228Z,99285.34
2022-08-19T12:19:31.618Z,99278.34
2022-08-19T12:22:03.683Z,99276.38
2022-08-19T12:24:33.315Z,99281.56
2022-08-19T12:27:03.210Z,99271.25
2022-08-19T12:29:30.633Z,99270.78
2022-08-19T12:32:02.091Z,99275.47
2022-08-19T12:34:33.530Z,99274.38
2022-08-19T12:37:03.062Z,99266.47
2022-08-19T12:39:29.487Z,99270.25
2022-08-19T12:41:55.899Z,99269.94
2022-08-19T12:44:29.389Z,99265.06
2022-08-19T12:46:59.482Z,99259.38
2022-08-19T12:49:52.488Z,99270.78
2022-08-19T12:52:23.299Z,99273.84
2022-08-19T12:54:53.837Z,99277.63
2022-08-19T12:57:22.317Z,99274.22
2022-08-19T12:59:54.714Z,99270.09
2022-08-19T13:02:22.346Z,99282.38
2022-08-19T13:04:49.079Z,99273.66
2022-08-19T13:07:15.607Z,99295.81
2022-08-19T13:09:43.617Z,99299.59
2022-08-19T13:12:13.822Z,99280.97
2022-08-19T13:14:41.335Z,99276.34
2022-08-19T13:17:09.478Z,99291.28
2022-08-19T13:19:37.585Z,99288.91
2022-08-19T13:22:04.081Z,99287.47
2022-08-19T13:24:32.787Z,99275.22
2022-08-19T13:27:01.513Z,99279.41
2022-08-19T13:29:46.656Z,99272.22
2022-08-19T13:32:31.575Z,99273.81
2022-08-19T13:34:58.047Z,99271.41
2022-08-19T13:37:42.046Z,99274.72
2022-08-19T13:40:17.999Z,99261.88
2022-08-19T13:42:47.244Z,99274.47
2022-08-19T13:45:15.108Z,99268.22
2022-08-19T13:47:45.278Z,99277.69
2022-08-19T13:50:13.732Z,99271.41
2022-08-19T13:52:41.024Z,99279.41
2022-08-19T13:55:08.783Z,99278.09
2022-08-19T13:57:35.515Z,99273.13
2022-08-19T14:00:03.393Z,99280.47
2022-08-19T14:02:31.125Z,99275.03
2022-08-19T14:04:57.529Z,99282.28
2022-08-19T14:07:25.072Z,99272.38
2022-08-19T14:09:51.693Z,99278.75
2022-08-19T14:12:28.793Z,99287.13
2022-08-19T14:14:55.801Z,99284.66
2022-08-19T14:17:22.467Z,99283.50
2022-08-19T14:19:49.009Z,99284.50
2022-08-19T14:22:15.470Z,99289.72
2022-08-19T14:24:48.886Z,99286.31
2022-08-19T14:27:15.679Z,99298.25
2022-08-19T14:29:42.193Z,99287.53
2022-08-19T14:32:08.722Z,99281.75
2022-08-19T14:34:38.269Z,99273.50
2022-08-19T14:37:04.899Z,99278.38
2022-08-19T14:39:31.295Z,99285.91
2022-08-19T14:41:58.213Z,99287.19
2022-08-19T14:44:24.731Z,99279.78
2022-08-19T14:46:51.267Z,99279.19
2022-08-19T14:49:19.286Z,99280.16
2022-08-19T14:51:47.815Z,99284.84
2022-08-19T14:54:14.517Z,99293.25
2022-08-19T14:56:42.111Z,99286.63
2022-08-19T14:59:08.560Z,99285.47
2022-08-19T15:01:36.116Z,99288.06
2022-08-19T15:04:02.689Z,99296.47
2022-08-19T15:06:29.273Z,99299.03
2022-08-19T15:08:59.547Z,99302.81
2022-08-19T15:11:29.285Z,99298.34
2022-08-19T15:13:56.636Z,99300.47
2022-08-19T15:16:24.126Z,99287.38
2022-08-19T15:18:54.057Z,99287.03
2022-08-19T15:21:26.904Z,99283.97
2022-08-19T15:23:55.653Z,99285.25
2022-08-19T15:26:22.136Z,99280.53
2022-08-19T15:28:49.536Z,99280.66
2022-08-19T15:31:25.451Z,99283.03
2022-08-19T15:33:58.087Z,99272.66
2022-08-19T15:36:26.126Z,99272.31
2022-08-19T15:38:53.197Z,99267.69
2022-08-19T15:41:23.341Z,99266.66
2022-08-19T15:44:04.922Z,99257.09
2022-08-19T15:46:33.309Z,99249.41
2022-08-19T15:49:01.099Z,99252.59
2022-08-19T15:51:30.229Z,99248.22
2022-08-19T15:53:57.149Z,99240.56
2022-08-19T15:56:27.190Z,99232.09
2022-08-19T15:59:12.737Z,99231.28
2022-08-19T16:01:57.862Z,99232.09
2022-08-19T16:04:42.963Z,99233.59
2022-08-19T16:07:10.192Z,99241.38
2022-08-19T16:09:36.644Z,99239.97
2022-08-19T16:12:04.928Z,99228.78
2022-08-19T16:14:33.719Z,99250.47
2022-08-19T16:17:00.263Z,99248.81
2022-08-19T16:19:27.101Z,99247.16
2022-08-19T16:21:56.374Z,99250.91
2022-08-19T16:24:26.085Z,99247.16
2022-08-19T16:26:52.909Z,99252.81
2022-08-19T16:29:22.084Z,99258.44
2022-08-19T16:32:10.656Z,99254.78
2022-08-19T16:34:40.023Z,99250.09
2022-08-19T16:37:06.453Z,99249.84
2022-08-19T16:39:33.013Z,99261.06
2022-08-19T16:41:59.519Z,99255.25
2022-08-19T16:44:29.875Z,99258.44
2022-08-19T16:46:59.647Z,99255.97
2022-08-19T16:49:54.402Z,99264.06
2022-08-19T16:52:18.023Z,99265.38
2022-08-19T16:54:44.833Z,99256.19
2022-08-19T16:57:12.487Z,99264.53
2022-08-19T16:59:42.590Z,99267.03
2022-08-19T17:02:19.349Z,99274.09
2022-08-19T17:04:58.654Z,99285.16
2022-08-19T17:07:33.445Z,99284.09
2022-08-19T17:10:00.963Z,99288.91
2022-08-19T17:12:31.897Z,99283.97
2022-08-19T17:14:59.316Z,99283.38
2022-08-19T17:17:28.940Z,99278.88
2022-08-19T17:19:56.167Z,99284.28
2022-08-19T17:22:22.562Z,99295.97
2022-08-19T17:24:49.279Z,99302.28
2022-08-19T17:27:15.746Z,99293.78
2022-08-19T17:29:46.771Z,99297.97
2022-08-19T17:32:14.378Z,99297.97
2022-08-19T17:34:41.009Z,99303.28
2022-08-19T17:37:07.563Z,99301.03
2022-08-19T17:39:39.002Z,99301.22
2022-08-19T17:42:08.117Z,99309.22
2022-08-19T17:44:36.471Z,99302.97
2022-08-19T17:47:04.144Z,99311.78
2022-08-19T17:49:30.587Z,99306.44
2022-08-19T17:51:59.954Z,99313.31
2022-08-19T17:54:33.734Z,99311.06
2022-08-19T17:57:01.194Z,99316.09
2022-08-19T17:59:29.243Z,99311.34
2022-08-19T18:01:57.326Z,99317.22
2022-08-19T18:04:25.743Z,99325.19
2022-08-19T18:06:54.998Z,99316.53
2022-08-19T18:09:26.996Z,99319.69
2022-08-19T18:11:57.044Z,99324.72
2022-08-19T18:14:33.049Z,99335.41
2022-08-19T18:17:09.140Z,99336.03
2022-08-19T18:19:42.723Z,99340.63
2022-08-19T18:22:27.014Z,99352.91
2022-08-19T18:24:55.054Z,99346.69
2022-08-19T18:27:21.526Z,99343.00
2022-08-19T18:29:48.609Z,99358.56
2022-08-19T18:32:16.458Z,99352.31
2022-08-19T18:34:45.821Z,99353.59
2022-08-19T18:37:12.889Z,99359.84
2022-08-19T18:39:58.472Z,99357.78
2022-08-19T18:42:43.585Z,99357.88
2022-08-19T18:45:29.570Z,99357.25
2022-08-19T18:48:26.829Z,99361.44
2022-08-19T18:50:55.605Z,99361.88
2022-08-19T18:53:22.016Z,99363.41
2022-08-19T18:55:53.792Z,99365.69
2022-08-19T18:58:25.962Z,99378.59
2022-08-19T19:00:55.803Z,99381.75
2022-08-19T19:03:23.618Z,99391.53
2022-08-19T19:05:51.061Z,99391.09
2022-08-19T19:08:17.782Z,99401.91
2022-08-19T19:10:44.281Z,99395.75
2022-08-19T19:13:16.255Z,99403.91
2022-08-19T19:15:43.822Z,99406.84
2022-08-19T19:18:13.380Z,99403.56
2022-08-19T19:20:41.151Z,99413.31
2022-08-19T19:23:08.217Z,99417.69
2022-08-19T19:25:50.387Z,99421.47
2022-08-19T19:28:17.793Z,99425.03
2022-08-19T19:30:44.267Z,99421.28
2022-08-19T19:33:11.122Z,99426.06
2022-08-19T19:35:37.547Z,99425.06
2022-08-19T19:38:07.914Z,99431.50
2022-08-19T19:40:34.307Z,99424.63
2022-08-19T19:43:00.730Z,99429.19
2022-08-19T19:45:27.995Z,99435.19
2022-08-19T19:47:54.506Z,99434.00
2022-08-19T19:50:21.080Z,99437.13
2022-08-19T19:52:47.541Z,99443.56
2022-08-19T19:55:17.807Z,99452.28
2022-08-19T19:57:48.716Z,99443.78
2022-08-19T20:00:18.686Z,99443.16
2022-08-19T20:02:49.262Z,99448.75
2022-08-19T20:05:19.167Z,99453.13
2022-08-19T20:08:04.177Z,99452.72
2022-08-19T20:10:32.260Z,99461.06
2022-08-19T20:13:02.246Z,99458.94
2022-08-19T20:15:29.305Z,99463.53
2022-08-19T20:17:55.848Z,99455.19
2022-08-19T20:20:23.554Z,99462.50
2022-08-19T20:22:50.116Z,99465.81
2022-08-19T20:25:18.899Z,99465.97
2022-08-19T20:27:48.871Z,99463.06
2022-08-19T20:30:19.825Z,99465.56
2022-08-19T20:32:47.753Z,99463.69
2022-08-19T20:35:17.017Z,99456.41
2022-08-19T20:37:43.419Z,99454.34
2022-08-19T20:40:11.557Z,99462.22
2022-08-19T20:42:40.502Z,99464.31
2022-08-19T20:45:19.681Z,99466.41
2022-08-19T20:47:58.497Z,99465.97
2022-08-19T20:50:26.011Z,99457.72
2022-08-19T20:52:56.433Z,99456.06
2022-08-19T20:55:23.003Z,99463.53
2022-08-19T20:57:49.465Z,99467.88
2022-08-19T21:00:16.101Z,99469.75
2022-08-19T21:02:42.531Z,99470.59
2022-08-19T21:05:09.146Z,99476.41
2022-08-19T21:07:39.374Z,99469.31
2022-08-19T21:10:07.457Z,99462.50
2022-08-19T21:12:34.059Z,99469.56
2022-08-19T21:15:00.466Z,99467.06
2022-08-19T21:17:26.861Z,99474.75
2022-08-19T21:19:53.276Z,99466.47
2022-08-19T21:22:19.667Z,99473.94
2022-08-19T21:24:46.101Z,99476.44
2022-08-19T21:27:12.528Z,99473.56
2022-08-19T21:29:40.042Z,99482.06
2022-08-19T21:32:06.890Z,99484.78
2022-08-19T21:34:33.327Z,99481.84
2022-08-19T21:36:59.734Z,99482.25
2022-08-19T21:39:26.194Z,99479.78
2022-08-19T21:41:52.738Z,99492.66
2022-08-19T21:44:19.127Z,99486.84
2022-08-19T21:46:45.579Z,99484.56
2022-08-19T21:49:16.953Z,99488.31
2022-08-19T21:51:43.390Z,99487.69
2022-08-19T21:54:14.161Z,99497.25
2022-08-19T21:56:40.797Z,99498.31
2022-08-19T21:59:07.525Z,99495.38
2022-08-19T22:01:34.461Z,99490.19
2022-08-19T22:04:00.894Z,99486.47
2022-08-19T22:06:27.340Z,99487.31
2022-08-19T22:08:55.369Z,99492.69
2022-08-19T22:11:23.406Z,99498.91
2022-08-19T22:13:53.672Z,99500.16
2022-08-19T22:16:21.081Z,99488.94
2022-08-19T22:18:49.151Z,99487.69
2022-08-19T22:21:15.550Z,99481.72
2022-08-19T22:23:48.991Z,99482.31
2022-08-19T22:26:17.711Z,99485.84
2022-08-19T22:28:44.274Z,99487.69
2022-08-19T22:31:11.571Z,99484.19
2022-08-19T22:33:39.109Z,99487.28
2022-08-19T22:36:07.653Z,99486.69
2022-08-19T22:38:34.902Z,99481.91
2022-08-19T22:41:01.289Z,99482.94
2022-08-19T22:43:31.690Z,99489.38
2022-08-19T22:46:00.558Z,99483.56
2022-08-19T22:48:30.287Z,99488.16
2022-08-19T22:51:16.352Z,99483.78
2022-08-19T22:53:46.570Z,99491.03
2022-08-19T22:56:15.706Z,99489.19
2022-08-19T22:58:43.386Z,99485.47
2022-08-19T23:01:11.457Z,99487.53
2022-08-19T23:03:43.186Z,99482.75
2022-08-19T23:06:09.994Z,99482.13
2022-08-19T23:08:39.607Z,99481.50
2022-08-19T23:11:06.303Z,99480.06
2022-08-19T23:13:32.807Z,99481.50
2022-08-19T23:15:59.422Z,99477.38
2022-08-19T23:18:26.436Z,99479.22
2022-08-19T23:20:54.526Z,99480.69
2022-08-19T23:23:24.678Z,99480.88
2022-08-19T23:25:53.248Z,99479.84
2022-08-19T23:28:38.751Z,99474.06
2022-08-19T23:31:06.415Z,99480.88
2022-08-19T23:33:50.615Z,99484.63
2022-08-19T23:36:19.617Z,99475.31
2022-08-19T23:38:48.661Z,99485.66
2022-08-19T23:41:17.257Z,99481.91
2022-08-19T23:43:44.366Z,99492.50
2022-08-19T23:46:13.595Z,99489.81
2022-08-19T23:48:40.811Z,99487.72
2022-08-19T23:51:10.538Z,99500.59
2022-08-19T23:53:39.335Z,99489.81
2022-08-19T23:56:07.358Z,99484.41
2022-08-19T23:58:35.042Z,99483.16
